Flight Track Log - Related Links

Times and Time Zones

All times are in EDT time to prevent confusion due to time zone crossing. See the KAP46 flight status page for this flight to view local times or setup timezone preferences in your user account.

Time Position Orientation Groundspeed Altitude Reporting Facility
EDT Latitude Longitude Course Direction KTS MPH feet Rate Location/Type
Fri 10:15:44 AM 42.7589 -73.8058 North 104 120 900  Level Boston Center
Fri 10:17:09 AM 42.8069 -73.8014 North 120 138 2,200 829 Climbing Boston Center
Fri 10:18:16 AM 42.8425 -73.7936 North 121 139 3,000 756 Climbing Boston Center
Fri 10:19:16 AM 42.8756 -73.8086 342° North 127 146 3,800 793 Climbing Boston Center
Fri 10:20:17 AM 42.9131 -73.8264 341° North 125 144 4,600 738 Climbing Boston Center
Fri 10:21:18 AM 42.9461 -73.8414 342° North 127 146 5,300 689 Climbing Boston Center
Fri 10:22:19 AM 42.9814 -73.8592 340° North 131 151 6,000 595 Climbing Boston Center
Fri 10:23:19 AM 43.0144 -73.8769 339° North 130 150 6,500 248 Climbing Boston Center
Fri 10:24:20 AM 43.0539 -73.8950 342° North 153 176 6,500  Level Boston Center
Fri 10:25:20 AM 43.0953 -73.9158 340° North 159 183 6,500  Level Boston Center
Fri 10:26:42 AM 43.1450 -73.9397 341° North 161 185 6,500  Level Boston Center
Fri 10:27:42 AM 43.1906 -73.9608 341° North 156 180 6,500  Level Boston Center
Fri 10:28:42 AM 43.2278 -73.9817 338° Northwest 156 180 6,500  Level Boston Center
Fri 10:29:42 AM 43.2733 -74.0028 341° North 150 173 6,500  Level Boston Center
Fri 10:30:42 AM 43.3086 -74.0208 340° North 150 173 6,500  Level Boston Center
Fri 10:31:42 AM 43.3542 -74.0419 341° North 150 173 6,500  Level Boston Center
Fri 10:32:42 AM 43.3956 -74.0603 342° North 150 173 6,500  Level Boston Center
Fri 10:33:54 AM 43.4389 -74.0814 341° North 150 173 6,500 45 Level Boston Center
Fri 10:34:54 AM 43.4803 -74.1053 337° Northwest 150 173 6,600 50 Climbing Boston Center
Fri 10:35:55 AM 43.5239 -74.1267 340° North 150 173 6,600  Level Boston Center
Fri 10:36:54 AM 43.5631 -74.1478 339° North 150 173 6,600  Level Boston Center
Fri 10:37:55 AM 43.6044 -74.1661 342° North 150 173 6,600  Level Boston Center
Fri 10:38:54 AM 43.6458 -74.1875 339° North 150 173 6,600  Level Boston Center
Fri 10:39:54 AM 43.6872 -74.2086 340° North 150 173 6,600  Level Boston Center
Fri 10:40:54 AM 43.7244 -74.2269 340° North 150 173 6,600  Level Boston Center
Fri 10:41:54 AM 43.7636 -74.2483 338° Northwest 150 173 6,600  Level Boston Center
Fri 10:42:55 AM 43.8050 -74.2669 342° North 150 173 6,600  Level Boston Center
Fri 10:43:55 AM 43.8464 -74.2883 340° North 150 173 6,600  Level Boston Center
Fri 10:45:06 AM 43.8858 -74.3039 344° North 150 173 6,600 -45 Level Boston Center
Fri 10:46:07 AM 43.9333 -74.3314 337° Northwest 150 173 6,500 -50 Descending Boston Center
Fri 10:47:06 AM 43.9703 -74.3497 340° North 145 167 6,500  Level Boston Center
Fri 10:48:07 AM 44.0139 -74.3714 340° North 152 175 6,500  Level Boston Center
Fri 10:49:06 AM 44.0511 -74.3900 340° North 147 169 6,500  Level Boston Center
Fri 10:50:06 AM 44.0922 -74.4114 340° North 147 169 6,500  Level Boston Center
Fri 10:51:06 AM 44.1336 -74.4303 342° North 147 169 6,500  Level Boston Center
Fri 10:52:06 AM 44.1728 -74.4547 336° Northwest 147 169 6,500  Level Boston Center
Fri 10:53:07 AM 44.2122 -74.4706 344° North 147 169 6,500  Level Boston Center
Fri 10:54:07 AM 44.2514 -74.4950 336° Northwest 147 169 6,500  Level Boston Center
Fri 10:55:06 AM 44.2906 -74.5108 344° North 147 169 6,500  Level Boston Center
Fri 10:56:07 AM 44.3319 -74.5328 339° North 147 169 6,500  Level Boston Center
Fri 10:57:07 AM 44.3731 -74.5544 339° North 147 169 6,500  Level Boston Center
Fri 10:58:06 AM 44.4125 -74.5733 341° North 147 169 6,500 -50 Level Boston Center
Fri 10:59:06 AM 44.4536 -74.5922 342° North 147 169 6,400 -298 Descending Boston Center
Fri 11:00:07 AM 44.4969 -74.6172 338° Northwest 147 169 5,900 -446 Descending Boston Center
Fri 11:01:07 AM 44.5403 -74.6392 340° North 153 176 5,500 -454 Descending Boston Center
Fri 11:02:06 AM 44.5836 -74.6611 340° North 158 182 5,000 -403 Descending Boston Center
Fri 11:03:06 AM 44.6292 -74.6861 339° North 158 182 4,700 -300 Descending Boston Center

Login

Don't have an account? Register now (free) for customized features, flight alerts, and more!